Latest Weather Observations for Sydney Harbour

IDN60801

Issued at 5:02 pm EST Thursday 18 July 2019 (issued every 10 minutes, with the page automatically refreshed every 10 minutes)

About weather observations | Map of weather stations | Latest weather observations for NSW | Other Formats
Station Details ID: 066196 Name: WEDDING CAKE WEST Lat: -33.84 Lon: 151.26 Height: 6.0 m
Data from the previous 72 hours. | See also: Recent months at Sydney Harbour
Date/Time
EST
Temp
°C
App
Temp
°C
Dew
Point
°C
Rel
Hum
%
Delta-T
°C
Wind Press
QNH
hPa
Press
MSL
hPa
Rain since
9am
mm
Dir  Spd
km/h
Gust
km/h
Spd
kts
Gust
kts
18/05:00pm 16.4 - - - - SSE 9 11 5 6 - - -
18/04:30pm 17.4 - - - - SSE 11 15 6 8 - - -
18/04:00pm 18.0 - - - - SE 13 17 7 9 - - -
18/03:30pm 17.9 - - - - SE 13 17 7 9 - - -
18/03:00pm 17.9 - - - - SE 19 24 10 13 - - -
18/02:30pm 18.4 - - - - SSE 11 20 6 11 - - -
18/02:00pm 17.8 - - - - W 13 19 7 10 - - -
18/01:30pm 17.4 - - - - WNW 17 26 9 14 - - -
18/01:00pm 17.1 - - - - W 17 22 9 12 - - -
18/12:30pm 16.7 - - - - W 19 28 10 15 - - -
18/12:00pm 16.2 - - - - W 20 26 11 14 - - -
18/11:30am 15.8 - - - - W 24 32 13 17 - - -
18/11:00am 15.4 - - - - W 24 33 13 18 - - -
18/10:30am 15.1 - - - - W 24 30 13 16 - - -
18/10:00am 14.7 - - - - W 26 33 14 18 - - -
18/09:30am 14.1 - - - - W 26 33 14 18 - - -
18/09:00am 13.6 - - - - W 32 39 17 21 - - -
18/08:30am 13.5 - - - - W 24 30 13 16 - - -
18/08:00am 12.8 - - - - WNW 15 20 8 11 - - -
18/07:30am 12.6 - - - - NW 6 9 3 5 - - -
18/07:00am 12.5 - - - - W 17 22 9 12 - - -
18/06:30am 12.3 - - - - NW 9 15 5 8 - - -
18/06:00am 13.1 - - - - W 19 26 10 14 - - -
18/05:30am 13.3 - - - - W 30 39 16 21 - - -
18/05:00am 13.0 - - - - WSW 28 43 15 23 - - -
18/04:30am 13.3 - - - - W 24 33 13 18 - - -
18/04:00am 13.2 - - - - W 20 26 11 14 - - -
18/03:30am 12.9 - - - - W 24 30 13 16 - - -
18/03:00am 12.7 - - - - W 26 37 14 20 - - -
18/02:30am 12.4 - - - - W 22 28 12 15 - - -
18/02:00am 12.7 - - - - WSW 19 22 10 12 - - -
18/01:30am 12.8 - - - - WNW 22 32 12 17 - - -
18/01:00am 12.9 - - - - WNW 24 33 13 18 - - -
18/12:30am 13.0 - - - - WNW 22 30 12 16 - - -
18/12:00am 13.3 - - - - WNW 26 35 14 19 - - -
 
Date/Time
EST
Temp
°C
App
Temp
°C
Dew
Point
°C
Rel
Hum
%
Delta-T
°C
Wind Press
QNH
hPa
Press
MSL
hPa
Rain since
9am
mm
Dir  Spd
km/h
Gust
km/h
Spd
kts
Gust
kts
17/11:30pm 13.5 - - - - W 19 26 10 14 - - -
17/11:00pm 13.6 - - - - W 19 24 10 13 - - -
17/10:30pm 13.8 - - - - W 24 33 13 18 - - -
17/10:00pm 13.9 - - - - W 20 32 11 17 - - -
17/09:40pm 13.9 - - - - W 30 44 16 24 - - -
17/09:30pm 13.9 - - - - WSW 26 41 14 22 - - -
17/09:05pm 14.1 - - - - WSW 41 61 22 33 - - -
17/09:00pm 14.2 - - - - WSW 35 46 19 25 - - -
17/08:30pm 14.6 - - - - WSW 33 44 18 24 - - -
17/08:00pm 14.8 - - - - WSW 22 33 12 18 - - -
17/07:30pm 15.3 - - - - W 28 41 15 22 - - -
17/07:00pm 15.5 - - - - W 22 33 12 18 - - -
17/06:30pm 16.1 - - - - W 22 30 12 16 - - -
17/06:00pm 16.7 - - - - WNW 24 33 13 18 - - -
17/05:30pm 17.3 - - - - W 26 39 14 21 - - -
17/05:00pm 18.1 - - - - W 26 33 14 18 - - -
17/04:30pm 18.8 - - - - WNW 13 17 7 9 - - -
17/04:00pm 18.9 - - - - WNW 15 24 8 13 - - -
17/03:30pm 18.4 - - - - W 17 22 9 12 - - -
17/03:00pm 18.2 - - - - WNW 17 28 9 15 - - -
17/02:30pm 18.0 - - - - NW 11 20 6 11 - - -
17/02:00pm 17.7 - - - - WNW 17 30 9 16 - - -
17/01:30pm 16.9 - - - - W 20 26 11 14 - - -
17/01:00pm 16.5 - - - - WNW 17 22 9 12 - - -
17/12:30pm 15.8 - - - - WNW 15 22 8 12 - - -
17/12:00pm 15.1 - - - - WSW 20 24 11 13 - - -
17/11:30am 14.8 - - - - W 24 32 13 17 - - -
17/11:00am 14.2 - - - - W 28 37 15 20 - - -
17/10:30am 13.9 - - - - W 28 37 15 20 - - -
17/10:00am 13.7 - - - - W 24 32 13 17 - - -
17/09:30am 13.0 - - - - WSW 28 35 15 19 - - -
17/09:00am 12.7 - - - - WSW 24 30 13 16 - - -
17/08:30am 12.3 - - - - WSW 24 30 13 16 - - -
17/08:00am 12.2 - - - - WSW 24 32 13 17 - - -
17/07:30am 12.3 - - - - WSW 20 30 11 16 - - -
17/07:00am 12.3 - - - - WSW 20 28 11 15 - - -
17/06:30am 12.1 - - - - WSW 22 30 12 16 - - -
17/06:00am 12.4 - - - - WSW 20 30 11 16 - - -
17/05:30am 12.5 - - - - WSW 19 28 10 15 - - -
17/05:00am 12.5 - - - - WSW 22 30 12 16 - - -
17/04:30am 12.6 - - - - WSW 20 26 11 14 - - -
17/04:00am 12.5 - - - - WSW 20 26 11 14 - - -
17/03:30am 12.7 - - - - WSW 24 33 13 18 - - -
17/03:00am 12.8 - - - - WSW 19 26 10 14 - - -
17/02:30am 13.3 - - - - W 22 30 12 16 - - -
17/02:00am 13.4 - - - - W 17 24 9 13 - - -
17/01:30am 13.2 - - - - W 20 26 11 14 - - -
17/01:00am 13.6 - - - - W 24 32 13 17 - - -
17/12:30am 13.7 - - - - WSW 24 35 13 19 - - -
17/12:00am 13.7 - - - - WSW 19 28 10 15 - - -
 
Date/Time
EST
Temp
°C
App
Temp
°C
Dew
Point
°C
Rel
Hum
%
Delta-T
°C
Wind Press
QNH
hPa
Press
MSL
hPa
Rain since
9am
mm
Dir  Spd
km/h
Gust
km/h
Spd
kts
Gust
kts
16/11:30pm 13.7 - - - - WSW 20 33 11 18 - - -
16/11:00pm 13.7 - - - - WSW 22 30 12 16 - - -
16/10:30pm 13.9 - - - - WSW 24 33 13 18 - - -
16/10:00pm 14.1 - - - - WSW 24 32 13 17 - - -
16/09:30pm 14.1 - - - - WSW 26 39 14 21 - - -
16/09:00pm 14.4 - - - - WSW 30 39 16 21 - - -
16/08:30pm 14.7 - - - - WSW 30 43 16 23 - - -
16/08:08pm 14.9 - - - - WSW 28 46 15 25 - - -
16/08:00pm 14.9 - - - - WSW 32 46 17 25 - - -
16/07:30pm 15.3 - - - - WSW 28 35 15 19 - - -
16/07:00pm 15.7 - - - - WSW 30 39 16 21 - - -
16/06:37pm 16.1 - - - - WSW 35 56 19 30 - - -
16/06:30pm 16.1 - - - - SW 37 46 20 25 - - -
16/06:00pm 16.7 - - - - SW 37 46 20 25 - - -
16/05:30pm 17.6 - - - - SW 32 41 17 22 - - -
16/05:00pm 18.2 - - - - WSW 32 41 17 22 - - -
16/04:30pm 18.9 - - - - SW 32 39 17 21 - - -
16/04:00pm 19.1 - - - - WSW 24 33 13 18 - - -
16/03:30pm 19.5 - - - - WSW 28 41 15 22 - - -
16/03:00pm 19.7 - - - - WSW 24 33 13 18 - - -
16/02:30pm 19.4 - - - - WSW 24 32 13 17 - - -
16/02:00pm 19.3 - - - - WSW 22 33 12 18 - - -
16/01:30pm 18.3 - - - - W 9 17 5 9 - - -
16/01:00pm 17.3 - - - - W 19 24 10 13 - - -
16/12:30pm 16.7 - - - - W 19 26 10 14 - - -
16/12:00pm 16.3 - - - - W 24 32 13 17 - - -
16/11:30am 15.6 - - - - W 24 35 13 19 - - -
16/11:00am 14.9 - - - - WSW 24 32 13 17 - - -
16/10:30am 14.3 - - - - WSW 24 32 13 17 - - -
16/10:00am 13.9 - - - - WSW 20 28 11 15 - - -
16/09:30am 13.4 - - - - WSW 24 33 13 18 - - -
16/09:00am 13.1 - - - - WSW 26 35 14 19 - - -
16/08:30am 12.6 - - - - WSW 30 37 16 20 - - -
16/08:00am 12.1 - - - - WSW 26 35 14 19 - - -
16/07:30am 11.9 - - - - WSW 19 24 10 13 - - -
16/07:00am 11.8 - - - - WSW 24 32 13 17 - - -
16/06:30am 12.0 - - - - WSW 26 33 14 18 - - -
16/06:00am 12.2 - - - - W 24 30 13 16 - - -
16/05:30am 12.2 - - - - W 22 28 12 15 - - -
16/05:00am 12.2 - - - - WSW 22 30 12 16 - - -
16/04:30am 11.6 - - - - WSW 19 22 10 12 - - -
16/04:00am 12.0 - - - - WSW 20 32 11 17 - - -
16/03:30am 12.1 - - - - WSW 13 19 7 10 - - -
16/03:00am 12.5 - - - - W 13 22 7 12 - - -
16/02:30am 12.4 - - - - WNW 22 30 12 16 - - -
16/02:00am 12.7 - - - - W 20 30 11 16 - - -
16/01:30am 12.1 - - - - WSW 20 26 11 14 - - -
16/01:00am 11.9 - - - - WSW 19 26 10 14 - - -
16/12:30am 12.2 - - - - WSW 20 32 11 17 - - -
16/12:00am 12.3 - - - - WSW 20 30 11 16 - - -
 
Date/Time
EST
Temp
°C
App
Temp
°C
Dew
Point
°C
Rel
Hum
%
Delta-T
°C
Wind Press
QNH
hPa
Press
MSL
hPa
Rain since
9am
mm
Dir  Spd
km/h
Gust
km/h
Spd
kts
Gust
kts
15/11:30pm 12.9 - - - - W 22 32 12 17 - - -
15/11:00pm 12.7 - - - - W 20 30 11 16 - - -
15/10:30pm 12.7 - - - - W 19 24 10 13 - - -
15/10:00pm 12.5 - - - - W 13 17 7 9 - - -
15/09:30pm 13.0 - - - - W 17 24 9 13 - - -
15/09:00pm 13.3 - - - - W 20 28 11 15 - - -
15/08:30pm 13.8 - - - - WSW 28 35 15 19 - - -
15/08:00pm 14.4 - - - - WSW 32 44 17 24 - - -
15/07:30pm 14.9 - - - - WSW 20 30 11 16 - - -
15/07:00pm 15.2 - - - - WSW 20 28 11 15 - - -
15/06:30pm 15.5 - - - - SW 20 33 11 18 - - -
15/06:00pm 15.7 - - - - W 17 24 9 13 - - -
15/05:30pm 15.9 - - - - W 19 26 10 14 - - -

Other formats

Comma delimited format used in spreadsheet applications
http://www.bom.gov.au/fwo/IDN60801/IDN60801.95766.axf

JavaScript Object Notation format (JSON) in row-major order
http://www.bom.gov.au/fwo/IDN60801/IDN60801.95766.json

Data quality

Most of these data are generated automatically and are frequently updated. Quality checks on data are not normally performed. It is possible for incorrect values to appear. Refer to information at About Latest Weather Observations and please check the disclaimer before using these data.